sensor_id;sensor_type;location;lat;lon;timestamp;P1;durP1;ratioP1;P2;durP2;ratioP2
1885;SDS011;943;51.568;6.998;2022-07-24T00:01:56;7.83;;;6.80;;
1885;SDS011;943;51.568;6.998;2022-07-24T00:04:23;8.33;;;7.23;;
1885;SDS011;943;51.568;6.998;2022-07-24T00:06:53;7.87;;;7.07;;
1885;SDS011;943;51.568;6.998;2022-07-24T00:09:21;8.33;;;6.40;;
1885;SDS011;943;51.568;6.998;2022-07-24T00:11:48;7.67;;;6.27;;
1885;SDS011;943;51.568;6.998;2022-07-24T00:14:17;6.70;;;6.00;;
1885;SDS011;943;51.568;6.998;2022-07-24T00:16:44;8.57;;;6.37;;
1885;SDS011;943;51.568;6.998;2022-07-24T00:19:12;9.47;;;6.67;;
1885;SDS011;943;51.568;6.998;2022-07-24T00:21:39;9.90;;;7.03;;
1885;SDS011;943;51.568;6.998;2022-07-24T00:24:07;9.87;;;5.80;;
1885;SDS011;943;51.568;6.998;2022-07-24T00:26:35;7.03;;;6.07;;
1885;SDS011;943;51.568;6.998;2022-07-24T00:29:03;7.03;;;5.63;;
1885;SDS011;943;51.568;6.998;2022-07-24T00:31:32;7.30;;;6.20;;
1885;SDS011;943;51.568;6.998;2022-07-24T00:34:00;8.53;;;6.63;;
1885;SDS011;943;51.568;6.998;2022-07-24T00:36:29;8.73;;;6.53;;
1885;SDS011;943;51.568;6.998;2022-07-24T00:38:56;8.67;;;6.80;;
1885;SDS011;943;51.568;6.998;2022-07-24T00:41:24;7.30;;;6.57;;
1885;SDS011;943;51.568;6.998;2022-07-24T00:46:41;8.00;;;7.17;;
1885;SDS011;943;51.568;6.998;2022-07-24T00:49:16;8.13;;;6.83;;
1885;SDS011;943;51.568;6.998;2022-07-24T00:51:52;11.20;;;6.73;;
1885;SDS011;943;51.568;6.998;2022-07-24T00:54:20;7.63;;;6.70;;
1885;SDS011;943;51.568;6.998;2022-07-24T00:56:51;11.90;;;7.90;;
1885;SDS011;943;51.568;6.998;2022-07-24T00:59:21;7.50;;;6.80;;
1885;SDS011;943;51.568;6.998;2022-07-24T01:01:51;8.70;;;6.67;;
1885;SDS011;943;51.568;6.998;2022-07-24T01:04:19;10.40;;;7.30;;
1885;SDS011;943;51.568;6.998;2022-07-24T01:06:47;8.00;;;6.90;;
1885;SDS011;943;51.568;6.998;2022-07-24T01:09:15;7.90;;;6.30;;
1885;SDS011;943;51.568;6.998;2022-07-24T01:11:43;8.57;;;6.63;;
1885;SDS011;943;51.568;6.998;2022-07-24T01:14:12;8.40;;;7.40;;
1885;SDS011;943;51.568;6.998;2022-07-24T01:16:43;11.13;;;7.67;;
1885;SDS011;943;51.568;6.998;2022-07-24T01:19:11;6.80;;;6.10;;
1885;SDS011;943;51.568;6.998;2022-07-24T01:21:44;8.73;;;7.33;;
1885;SDS011;943;51.568;6.998;2022-07-24T01:24:19;7.87;;;6.63;;
1885;SDS011;943;51.568;6.998;2022-07-24T01:26:48;10.43;;;7.70;;
1885;SDS011;943;51.568;6.998;2022-07-24T01:29:16;9.07;;;7.10;;
1885;SDS011;943;51.568;6.998;2022-07-24T01:31:45;7.23;;;6.30;;
1885;SDS011;943;51.568;6.998;2022-07-24T01:34:13;8.03;;;7.23;;
1885;SDS011;943;51.568;6.998;2022-07-24T01:36:41;6.77;;;6.07;;
1885;SDS011;943;51.568;6.998;2022-07-24T01:39:10;8.53;;;6.27;;
1885;SDS011;943;51.568;6.998;2022-07-24T01:41:38;12.67;;;8.50;;
1885;SDS011;943;51.568;6.998;2022-07-24T01:44:06;10.23;;;7.70;;
1885;SDS011;943;51.568;6.998;2022-07-24T01:46:34;12.10;;;9.80;;
1885;SDS011;943;51.568;6.998;2022-07-24T01:49:03;7.20;;;6.50;;
1885;SDS011;943;51.568;6.998;2022-07-24T01:51:31;9.13;;;7.10;;
1885;SDS011;943;51.568;6.998;2022-07-24T01:53:59;7.17;;;6.47;;
1885;SDS011;943;51.568;6.998;2022-07-24T01:56:29;8.93;;;8.00;;
1885;SDS011;943;51.568;6.998;2022-07-24T01:58:59;6.60;;;5.83;;
1885;SDS011;943;51.568;6.998;2022-07-24T02:01:32;8.23;;;6.30;;
1885;SDS011;943;51.568;6.998;2022-07-24T02:04:01;7.60;;;6.80;;
1885;SDS011;943;51.568;6.998;2022-07-24T02:06:30;9.50;;;7.20;;
1885;SDS011;943;51.568;6.998;2022-07-24T02:08:57;9.17;;;7.00;;
1885;SDS011;943;51.568;6.998;2022-07-24T02:11:26;8.63;;;6.37;;
1885;SDS011;943;51.568;6.998;2022-07-24T02:13:54;10.67;;;9.23;;
1885;SDS011;943;51.568;6.998;2022-07-24T02:16:23;7.73;;;6.93;;
1885;SDS011;943;51.568;6.998;2022-07-24T02:18:51;10.03;;;7.80;;
1885;SDS011;943;51.568;6.998;2022-07-24T02:21:19;8.80;;;7.70;;
1885;SDS011;943;51.568;6.998;2022-07-24T02:23:47;10.80;;;7.50;;
1885;SDS011;943;51.568;6.998;2022-07-24T02:26:15;9.63;;;6.97;;
1885;SDS011;943;51.568;6.998;2022-07-24T02:28:43;11.27;;;7.57;;
1885;SDS011;943;51.568;6.998;2022-07-24T02:31:11;7.63;;;6.80;;
1885;SDS011;943;51.568;6.998;2022-07-24T02:33:38;8.43;;;6.90;;
1885;SDS011;943;51.568;6.998;2022-07-24T02:36:07;9.70;;;6.93;;
1885;SDS011;943;51.568;6.998;2022-07-24T02:38:35;8.70;;;7.10;;
1885;SDS011;943;51.568;6.998;2022-07-24T02:41:03;14.40;;;7.90;;
1885;SDS011;943;51.568;6.998;2022-07-24T02:43:30;9.23;;;7.97;;
1885;SDS011;943;51.568;6.998;2022-07-24T02:45:59;11.70;;;8.20;;
1885;SDS011;943;51.568;6.998;2022-07-24T02:48:27;8.67;;;7.70;;
1885;SDS011;943;51.568;6.998;2022-07-24T02:50:54;9.73;;;7.70;;
1885;SDS011;943;51.568;6.998;2022-07-24T02:53:23;11.60;;;7.70;;
1885;SDS011;943;51.568;6.998;2022-07-24T02:55:51;8.50;;;7.17;;
1885;SDS011;943;51.568;6.998;2022-07-24T02:58:20;8.67;;;7.50;;
1885;SDS011;943;51.568;6.998;2022-07-24T03:00:47;10.23;;;8.03;;
1885;SDS011;943;51.568;6.998;2022-07-24T03:03:15;8.30;;;7.40;;
1885;SDS011;943;51.568;6.998;2022-07-24T03:05:43;12.80;;;8.30;;
1885;SDS011;943;51.568;6.998;2022-07-24T03:08:10;10.30;;;7.50;;
1885;SDS011;943;51.568;6.998;2022-07-24T03:10:38;11.47;;;6.90;;
1885;SDS011;943;51.568;6.998;2022-07-24T03:13:05;8.70;;;7.70;;
1885;SDS011;943;51.568;6.998;2022-07-24T03:15:34;8.93;;;8.00;;
1885;SDS011;943;51.568;6.998;2022-07-24T03:18:02;8.03;;;7.10;;
1885;SDS011;943;51.568;6.998;2022-07-24T03:20:46;8.80;;;7.90;;
1885;SDS011;943;51.568;6.998;2022-07-24T03:23:14;12.77;;;7.63;;
1885;SDS011;943;51.568;6.998;2022-07-24T03:25:42;9.80;;;7.13;;
1885;SDS011;943;51.568;6.998;2022-07-24T03:28:10;8.27;;;7.37;;
1885;SDS011;943;51.568;6.998;2022-07-24T03:30:38;10.80;;;7.63;;
1885;SDS011;943;51.568;6.998;2022-07-24T03:33:06;9.03;;;7.57;;
1885;SDS011;943;51.568;6.998;2022-07-24T03:35:34;9.57;;;8.57;;
1885;SDS011;943;51.568;6.998;2022-07-24T03:38:03;9.87;;;8.30;;
1885;SDS011;943;51.568;6.998;2022-07-24T03:40:31;9.40;;;8.37;;
1885;SDS011;943;51.568;6.998;2022-07-24T03:42:59;10.00;;;8.90;;
1885;SDS011;943;51.568;6.998;2022-07-24T03:45:28;10.37;;;8.27;;
1885;SDS011;943;51.568;6.998;2022-07-24T03:47:57;9.23;;;8.07;;
1885;SDS011;943;51.568;6.998;2022-07-24T03:50:25;11.87;;;8.27;;
1885;SDS011;943;51.568;6.998;2022-07-24T03:52:52;10.03;;;8.57;;
1885;SDS011;943;51.568;6.998;2022-07-24T03:55:21;11.00;;;9.00;;
1885;SDS011;943;51.568;6.998;2022-07-24T03:57:50;9.10;;;8.13;;
1885;SDS011;943;51.568;6.998;2022-07-24T04:00:18;12.63;;;8.03;;
1885;SDS011;943;51.568;6.998;2022-07-24T04:02:47;9.60;;;8.47;;
1885;SDS011;943;51.568;6.998;2022-07-24T04:05:15;9.50;;;7.60;;
1885;SDS011;943;51.568;6.998;2022-07-24T04:07:44;13.70;;;7.60;;
1885;SDS011;943;51.568;6.998;2022-07-24T04:10:12;9.63;;;8.40;;
1885;SDS011;943;51.568;6.998;2022-07-24T04:12:40;10.80;;;8.73;;
1885;SDS011;943;51.568;6.998;2022-07-24T04:15:07;11.13;;;8.30;;
1885;SDS011;943;51.568;6.998;2022-07-24T04:17:39;11.17;;;8.40;;
1885;SDS011;943;51.568;6.998;2022-07-24T04:20:09;9.97;;;7.50;;
1885;SDS011;943;51.568;6.998;2022-07-24T04:22:39;9.27;;;8.33;;
1885;SDS011;943;51.568;6.998;2022-07-24T04:25:08;9.90;;;8.90;;
1885;SDS011;943;51.568;6.998;2022-07-24T04:27:36;8.93;;;8.03;;
1885;SDS011;943;51.568;6.998;2022-07-24T04:30:04;9.03;;;8.13;;
1885;SDS011;943;51.568;6.998;2022-07-24T04:32:33;9.20;;;8.00;;
1885;SDS011;943;51.568;6.998;2022-07-24T04:35:01;8.80;;;7.90;;
1885;SDS011;943;51.568;6.998;2022-07-24T04:37:32;8.30;;;7.20;;
1885;SDS011;943;51.568;6.998;2022-07-24T04:40:00;7.73;;;6.60;;
1885;SDS011;943;51.568;6.998;2022-07-24T04:42:27;10.40;;;7.73;;
1885;SDS011;943;51.568;6.998;2022-07-24T04:44:55;8.17;;;7.37;;
1885;SDS011;943;51.568;6.998;2022-07-24T04:47:23;8.80;;;7.90;;
1885;SDS011;943;51.568;6.998;2022-07-24T04:49:51;6.87;;;6.27;;
1885;SDS011;943;51.568;6.998;2022-07-24T04:52:18;9.13;;;7.67;;
1885;SDS011;943;51.568;6.998;2022-07-24T04:54:47;9.40;;;7.20;;
1885;SDS011;943;51.568;6.998;2022-07-24T04:57:16;8.33;;;7.20;;
1885;SDS011;943;51.568;6.998;2022-07-24T04:59:44;7.70;;;6.90;;
1885;SDS011;943;51.568;6.998;2022-07-24T05:02:11;8.77;;;7.30;;
1885;SDS011;943;51.568;6.998;2022-07-24T05:04:40;13.00;;;7.20;;
1885;SDS011;943;51.568;6.998;2022-07-24T05:07:09;7.07;;;6.37;;
1885;SDS011;943;51.568;6.998;2022-07-24T05:09:39;9.27;;;7.50;;
1885;SDS011;943;51.568;6.998;2022-07-24T05:12:08;10.87;;;7.47;;
1885;SDS011;943;51.568;6.998;2022-07-24T05:14:36;7.13;;;6.43;;
1885;SDS011;943;51.568;6.998;2022-07-24T05:17:04;8.10;;;7.30;;
1885;SDS011;943;51.568;6.998;2022-07-24T05:19:32;7.57;;;6.90;;
1885;SDS011;943;51.568;6.998;2022-07-24T05:22:00;8.47;;;7.57;;
1885;SDS011;943;51.568;6.998;2022-07-24T05:24:28;10.83;;;6.60;;
1885;SDS011;943;51.568;6.998;2022-07-24T05:26:56;8.00;;;7.20;;
1885;SDS011;943;51.568;6.998;2022-07-24T05:29:26;7.97;;;6.33;;
1885;SDS011;943;51.568;6.998;2022-07-24T05:31:54;7.23;;;6.43;;
1885;SDS011;943;51.568;6.998;2022-07-24T05:34:22;7.30;;;5.90;;
1885;SDS011;943;51.568;6.998;2022-07-24T05:36:50;7.23;;;6.33;;
1885;SDS011;943;51.568;6.998;2022-07-24T05:39:18;6.53;;;5.90;;
1885;SDS011;943;51.568;6.998;2022-07-24T05:41:46;6.80;;;5.57;;
1885;SDS011;943;51.568;6.998;2022-07-24T05:44:14;9.17;;;6.47;;
1885;SDS011;943;51.568;6.998;2022-07-24T05:46:41;7.00;;;6.30;;
1885;SDS011;943;51.568;6.998;2022-07-24T05:49:09;9.17;;;6.20;;
1885;SDS011;943;51.568;6.998;2022-07-24T05:51:37;6.63;;;5.87;;
1885;SDS011;943;51.568;6.998;2022-07-24T05:54:06;5.77;;;5.27;;
1885;SDS011;943;51.568;6.998;2022-07-24T05:56:39;7.40;;;5.10;;
1885;SDS011;943;51.568;6.998;2022-07-24T05:59:08;7.93;;;5.50;;
1885;SDS011;943;51.568;6.998;2022-07-24T06:01:35;5.70;;;5.20;;
1885;SDS011;943;51.568;6.998;2022-07-24T06:04:03;6.77;;;5.53;;
1885;SDS011;943;51.568;6.998;2022-07-24T06:06:32;8.23;;;6.03;;
1885;SDS011;943;51.568;6.998;2022-07-24T06:09:24;9.57;;;6.07;;
1885;SDS011;943;51.568;6.998;2022-07-24T06:11:53;7.43;;;4.60;;
1885;SDS011;943;51.568;6.998;2022-07-24T06:14:21;7.37;;;4.90;;
1885;SDS011;943;51.568;6.998;2022-07-24T06:16:49;6.97;;;5.70;;
1885;SDS011;943;51.568;6.998;2022-07-24T06:19:17;7.10;;;5.20;;
1885;SDS011;943;51.568;6.998;2022-07-24T06:21:45;6.00;;;4.57;;
1885;SDS011;943;51.568;6.998;2022-07-24T06:24:12;5.90;;;4.70;;
1885;SDS011;943;51.568;6.998;2022-07-24T06:26:41;6.23;;;5.10;;
1885;SDS011;943;51.568;6.998;2022-07-24T06:29:35;7.20;;;4.40;;
1885;SDS011;943;51.568;6.998;2022-07-24T06:32:03;5.27;;;4.67;;
1885;SDS011;943;51.568;6.998;2022-07-24T06:34:32;5.93;;;5.03;;
1885;SDS011;943;51.568;6.998;2022-07-24T06:37:00;5.00;;;4.50;;
1885;SDS011;943;51.568;6.998;2022-07-24T06:39:29;5.77;;;4.37;;
1885;SDS011;943;51.568;6.998;2022-07-24T06:41:56;5.33;;;4.57;;
1885;SDS011;943;51.568;6.998;2022-07-24T06:44:25;5.57;;;5.07;;
1885;SDS011;943;51.568;6.998;2022-07-24T06:46:56;6.00;;;5.00;;
1885;SDS011;943;51.568;6.998;2022-07-24T06:49:24;6.17;;;5.60;;
1885;SDS011;943;51.568;6.998;2022-07-24T06:51:52;5.67;;;5.20;;
1885;SDS011;943;51.568;6.998;2022-07-24T06:54:20;6.03;;;4.83;;
1885;SDS011;943;51.568;6.998;2022-07-24T06:56:48;6.20;;;5.13;;
1885;SDS011;943;51.568;6.998;2022-07-24T06:59:17;5.60;;;4.30;;
1885;SDS011;943;51.568;6.998;2022-07-24T07:01:45;6.35;;;4.90;;
1885;SDS011;943;51.568;6.998;2022-07-24T07:04:13;7.00;;;5.03;;
1885;SDS011;943;51.568;6.998;2022-07-24T07:06:44;5.20;;;4.70;;
1885;SDS011;943;51.568;6.998;2022-07-24T07:09:12;6.80;;;6.00;;
1885;SDS011;943;51.568;6.998;2022-07-24T07:11:40;5.60;;;4.93;;
1885;SDS011;943;51.568;6.998;2022-07-24T07:14:17;6.28;;;5.40;;
1885;SDS011;943;51.568;6.998;2022-07-24T07:16:45;6.30;;;5.70;;
1885;SDS011;943;51.568;6.998;2022-07-24T07:19:14;5.78;;;5.28;;
1885;SDS011;943;51.568;6.998;2022-07-24T07:21:42;6.43;;;5.47;;
1885;SDS011;943;51.568;6.998;2022-07-24T07:24:11;6.28;;;5.13;;
1885;SDS011;943;51.568;6.998;2022-07-24T07:26:38;8.13;;;5.18;;
1885;SDS011;943;51.568;6.998;2022-07-24T07:29:07;6.68;;;4.50;;
1885;SDS011;943;51.568;6.998;2022-07-24T07:31:35;7.75;;;6.15;;
1885;SDS011;943;51.568;6.998;2022-07-24T07:34:04;6.13;;;5.30;;
1885;SDS011;943;51.568;6.998;2022-07-24T07:36:31;5.75;;;5.15;;
1885;SDS011;943;51.568;6.998;2022-07-24T07:39:00;6.22;;;5.40;;
1885;SDS011;943;51.568;6.998;2022-07-24T07:41:30;8.30;;;5.50;;
1885;SDS011;943;51.568;6.998;2022-07-24T07:43:59;5.50;;;4.93;;
1885;SDS011;943;51.568;6.998;2022-07-24T07:46:36;6.30;;;4.95;;
1885;SDS011;943;51.568;6.998;2022-07-24T07:49:06;6.32;;;5.82;;
1885;SDS011;943;51.568;6.998;2022-07-24T07:51:39;5.85;;;5.25;;
1885;SDS011;943;51.568;6.998;2022-07-24T07:54:08;5.60;;;4.82;;
1885;SDS011;943;51.568;6.998;2022-07-24T07:56:37;8.07;;;5.45;;
1885;SDS011;943;51.568;6.998;2022-07-24T07:59:05;7.50;;;6.78;;
1885;SDS011;943;51.568;6.998;2022-07-24T08:01:33;7.18;;;6.47;;
1885;SDS011;943;51.568;6.998;2022-07-24T08:04:02;9.45;;;6.07;;
1885;SDS011;943;51.568;6.998;2022-07-24T08:06:30;6.28;;;5.32;;
1885;SDS011;943;51.568;6.998;2022-07-24T08:08:58;7.32;;;6.03;;
1885;SDS011;943;51.568;6.998;2022-07-24T08:11:25;7.57;;;5.22;;
1885;SDS011;943;51.568;6.998;2022-07-24T08:13:53;6.30;;;5.40;;
1885;SDS011;943;51.568;6.998;2022-07-24T08:16:21;7.32;;;5.28;;
1885;SDS011;943;51.568;6.998;2022-07-24T08:18:49;7.53;;;6.32;;
1885;SDS011;943;51.568;6.998;2022-07-24T08:21:17;7.18;;;6.00;;
1885;SDS011;943;51.568;6.998;2022-07-24T08:23:45;8.27;;;7.50;;
1885;SDS011;943;51.568;6.998;2022-07-24T08:26:15;10.73;;;8.00;;
1885;SDS011;943;51.568;6.998;2022-07-24T08:28:42;8.35;;;6.85;;
1885;SDS011;943;51.568;6.998;2022-07-24T08:31:10;7.38;;;6.57;;
1885;SDS011;943;51.568;6.998;2022-07-24T08:33:40;10.07;;;7.85;;
1885;SDS011;943;51.568;6.998;2022-07-24T08:36:08;10.68;;;7.93;;
1885;SDS011;943;51.568;6.998;2022-07-24T08:38:36;9.93;;;7.15;;
1885;SDS011;943;51.568;6.998;2022-07-24T08:41:04;7.93;;;6.60;;
1885;SDS011;943;51.568;6.998;2022-07-24T08:43:32;8.70;;;7.43;;
1885;SDS011;943;51.568;6.998;2022-07-24T08:46:00;11.40;;;7.45;;
1885;SDS011;943;51.568;6.998;2022-07-24T08:48:35;8.73;;;7.90;;
1885;SDS011;943;51.568;6.998;2022-07-24T08:51:14;8.48;;;7.68;;
1885;SDS011;943;51.568;6.998;2022-07-24T08:53:42;8.40;;;6.75;;
1885;SDS011;943;51.568;6.998;2022-07-24T08:56:10;8.35;;;7.25;;
1885;SDS011;943;51.568;6.998;2022-07-24T08:58:38;9.65;;;8.75;;
1885;SDS011;943;51.568;6.998;2022-07-24T09:01:10;10.52;;;8.23;;
1885;SDS011;943;51.568;6.998;2022-07-24T09:03:40;8.05;;;7.25;;
1885;SDS011;943;51.568;6.998;2022-07-24T09:06:13;11.35;;;8.80;;
1885;SDS011;943;51.568;6.998;2022-07-24T09:08:43;12.23;;;8.48;;
1885;SDS011;943;51.568;6.998;2022-07-24T09:11:32;9.90;;;8.88;;
1885;SDS011;943;51.568;6.998;2022-07-24T09:14:03;10.70;;;8.82;;
1885;SDS011;943;51.568;6.998;2022-07-24T09:16:49;15.93;;;9.32;;
1885;SDS011;943;51.568;6.998;2022-07-24T09:19:19;10.75;;;8.32;;
1885;SDS011;943;51.568;6.998;2022-07-24T09:21:47;11.38;;;8.68;;
1885;SDS011;943;51.568;6.998;2022-07-24T09:24:17;9.30;;;8.30;;
1885;SDS011;943;51.568;6.998;2022-07-24T09:26:52;10.07;;;8.23;;
1885;SDS011;943;51.568;6.998;2022-07-24T09:29:23;12.80;;;8.43;;
1885;SDS011;943;51.568;6.998;2022-07-24T09:31:59;11.17;;;8.47;;
1885;SDS011;943;51.568;6.998;2022-07-24T09:34:36;10.20;;;7.93;;
1885;SDS011;943;51.568;6.998;2022-07-24T09:37:08;9.90;;;8.43;;
1885;SDS011;943;51.568;6.998;2022-07-24T09:39:44;7.70;;;6.90;;
1885;SDS011;943;51.568;6.998;2022-07-24T09:42:13;10.30;;;7.80;;
1885;SDS011;943;51.568;6.998;2022-07-24T09:44:42;9.30;;;7.73;;
1885;SDS011;943;51.568;6.998;2022-07-24T09:47:11;10.10;;;9.00;;
1885;SDS011;943;51.568;6.998;2022-07-24T09:49:42;8.17;;;7.33;;
1885;SDS011;943;51.568;6.998;2022-07-24T09:52:12;12.25;;;8.63;;
1885;SDS011;943;51.568;6.998;2022-07-24T09:54:44;9.23;;;8.27;;
1885;SDS011;943;51.568;6.998;2022-07-24T09:59:57;10.30;;;8.45;;
1885;SDS011;943;51.568;6.998;2022-07-24T10:02:32;8.27;;;7.07;;
1885;SDS011;943;51.568;6.998;2022-07-24T10:05:02;8.45;;;7.53;;
1885;SDS011;943;51.568;6.998;2022-07-24T10:07:32;11.97;;;7.83;;
1885;SDS011;943;51.568;6.998;2022-07-24T10:10:02;8.53;;;7.23;;
1885;SDS011;943;51.568;6.998;2022-07-24T10:12:35;8.60;;;7.80;;
1885;SDS011;943;51.568;6.998;2022-07-24T10:15:03;9.47;;;8.53;;
1885;SDS011;943;51.568;6.998;2022-07-24T10:20:48;9.13;;;8.20;;
1885;SDS011;943;51.568;6.998;2022-07-24T10:23:29;11.90;;;8.60;;
1885;SDS011;943;51.568;6.998;2022-07-24T10:26:44;9.50;;;8.50;;
1885;SDS011;943;51.568;6.998;2022-07-24T10:29:18;9.63;;;8.63;;
1885;SDS011;943;51.568;6.998;2022-07-24T10:31:52;9.07;;;8.17;;
1885;SDS011;943;51.568;6.998;2022-07-24T10:40:42;12.53;;;8.90;;
1885;SDS011;943;51.568;6.998;2022-07-24T10:43:28;13.03;;;9.00;;
1885;SDS011;943;51.568;6.998;2022-07-24T10:48:24;9.33;;;8.43;;
1885;SDS011;943;51.568;6.998;2022-07-24T10:56:27;9.93;;;8.93;;
1885;SDS011;943;51.568;6.998;2022-07-24T10:59:09;9.97;;;8.87;;
1885;SDS011;943;51.568;6.998;2022-07-24T11:01:48;9.30;;;8.13;;
1885;SDS011;943;51.568;6.998;2022-07-24T11:09:58;10.33;;;8.33;;
1885;SDS011;943;51.568;6.998;2022-07-24T11:12:40;8.33;;;7.57;;
1885;SDS011;943;51.568;6.998;2022-07-24T11:15:13;8.13;;;7.40;;
1885;SDS011;943;51.568;6.998;2022-07-24T11:18:15;13.73;;;9.07;;
1885;SDS011;943;51.568;6.998;2022-07-24T11:20:43;10.97;;;9.90;;
1885;SDS011;943;51.568;6.998;2022-07-24T11:23:20;9.30;;;8.23;;
1885;SDS011;943;51.568;6.998;2022-07-24T11:25:49;9.33;;;7.80;;
1885;SDS011;943;51.568;6.998;2022-07-24T11:28:17;9.60;;;7.63;;
1885;SDS011;943;51.568;6.998;2022-07-24T11:30:45;8.70;;;7.80;;
1885;SDS011;943;51.568;6.998;2022-07-24T11:33:21;9.60;;;7.90;;
1885;SDS011;943;51.568;6.998;2022-07-24T11:35:49;9.37;;;7.90;;
1885;SDS011;943;51.568;6.998;2022-07-24T11:38:17;13.20;;;7.70;;
1885;SDS011;943;51.568;6.998;2022-07-24T11:40:44;10.30;;;8.80;;
1885;SDS011;943;51.568;6.998;2022-07-24T11:43:13;9.37;;;8.30;;
1885;SDS011;943;51.568;6.998;2022-07-24T11:45:50;9.10;;;8.20;;
1885;SDS011;943;51.568;6.998;2022-07-24T11:48:20;12.30;;;7.57;;
1885;SDS011;943;51.568;6.998;2022-07-24T11:51:04;9.60;;;8.70;;
1885;SDS011;943;51.568;6.998;2022-07-24T11:53:53;9.83;;;7.83;;
1885;SDS011;943;51.568;6.998;2022-07-24T11:56:24;9.97;;;8.23;;
1885;SDS011;943;51.568;6.998;2022-07-24T12:33:58;7.20;;;6.50;;
1885;SDS011;943;51.568;6.998;2022-07-24T12:36:27;8.33;;;6.93;;
1885;SDS011;943;51.568;6.998;2022-07-24T12:38:55;7.80;;;7.10;;
1885;SDS011;943;51.568;6.998;2022-07-24T12:41:25;8.43;;;7.73;;
1885;SDS011;943;51.568;6.998;2022-07-24T12:43:59;7.90;;;7.10;;
1885;SDS011;943;51.568;6.998;2022-07-24T12:46:37;7.83;;;7.00;;
1885;SDS011;943;51.568;6.998;2022-07-24T12:49:15;7.93;;;7.03;;
1885;SDS011;943;51.568;6.998;2022-07-24T12:51:45;9.73;;;7.17;;
1885;SDS011;943;51.568;6.998;2022-07-24T12:54:32;7.13;;;6.43;;
1885;SDS011;943;51.568;6.998;2022-07-24T12:57:07;8.27;;;7.30;;
1885;SDS011;943;51.568;6.998;2022-07-24T12:59:46;7.90;;;6.77;;
1885;SDS011;943;51.568;6.998;2022-07-24T13:02:20;13.13;;;6.57;;
1885;SDS011;943;51.568;6.998;2022-07-24T13:04:52;10.30;;;7.43;;
1885;SDS011;943;51.568;6.998;2022-07-24T13:07:25;7.03;;;6.30;;
1885;SDS011;943;51.568;6.998;2022-07-24T13:09:54;6.70;;;6.10;;
1885;SDS011;943;51.568;6.998;2022-07-24T13:12:22;8.27;;;6.50;;
1885;SDS011;943;51.568;6.998;2022-07-24T13:14:50;6.40;;;5.80;;
1885;SDS011;943;51.568;6.998;2022-07-24T13:17:18;9.33;;;6.57;;
1885;SDS011;943;51.568;6.998;2022-07-24T13:19:48;8.07;;;6.40;;
1885;SDS011;943;51.568;6.998;2022-07-24T13:22:18;7.07;;;6.37;;
1885;SDS011;943;51.568;6.998;2022-07-24T13:24:46;6.50;;;5.80;;
1885;SDS011;943;51.568;6.998;2022-07-24T13:27:15;10.40;;;6.20;;
1885;SDS011;943;51.568;6.998;2022-07-24T13:29:44;7.20;;;6.50;;
1885;SDS011;943;51.568;6.998;2022-07-24T13:32:14;6.97;;;6.23;;
1885;SDS011;943;51.568;6.998;2022-07-24T13:34:47;10.00;;;5.90;;
1885;SDS011;943;51.568;6.998;2022-07-24T13:37:17;6.73;;;5.80;;
1885;SDS011;943;51.568;6.998;2022-07-24T13:39:46;6.67;;;5.10;;
1885;SDS011;943;51.568;6.998;2022-07-24T13:42:14;6.33;;;5.50;;
1885;SDS011;943;51.568;6.998;2022-07-24T13:44:42;7.83;;;5.83;;
1885;SDS011;943;51.568;6.998;2022-07-24T13:47:10;10.30;;;5.70;;
1885;SDS011;943;51.568;6.998;2022-07-24T13:49:37;8.33;;;5.43;;
1885;SDS011;943;51.568;6.998;2022-07-24T13:52:05;7.10;;;5.83;;
1885;SDS011;943;51.568;6.998;2022-07-24T13:54:35;6.20;;;5.30;;
1885;SDS011;943;51.568;6.998;2022-07-24T13:57:03;5.80;;;4.77;;
1885;SDS011;943;51.568;6.998;2022-07-24T13:59:31;6.10;;;5.50;;
1885;SDS011;943;51.568;6.998;2022-07-24T14:02:00;5.83;;;5.27;;
1885;SDS011;943;51.568;6.998;2022-07-24T14:04:27;6.67;;;6.03;;
1885;SDS011;943;51.568;6.998;2022-07-24T14:06:56;7.33;;;5.60;;
1885;SDS011;943;51.568;6.998;2022-07-24T14:09:26;5.87;;;5.17;;
1885;SDS011;943;51.568;6.998;2022-07-24T14:11:54;5.77;;;5.10;;
1885;SDS011;943;51.568;6.998;2022-07-24T14:14:23;6.03;;;5.43;;
1885;SDS011;943;51.568;6.998;2022-07-24T14:16:51;8.37;;;5.37;;
1885;SDS011;943;51.568;6.998;2022-07-24T14:19:23;6.90;;;5.27;;
1885;SDS011;943;51.568;6.998;2022-07-24T14:21:51;5.43;;;4.93;;
1885;SDS011;943;51.568;6.998;2022-07-24T14:24:19;5.90;;;5.30;;
1885;SDS011;943;51.568;6.998;2022-07-24T14:26:48;6.20;;;5.60;;
1885;SDS011;943;51.568;6.998;2022-07-24T14:29:17;6.43;;;5.10;;
1885;SDS011;943;51.568;6.998;2022-07-24T14:31:45;6.40;;;5.27;;
1885;SDS011;943;51.568;6.998;2022-07-24T14:34:14;6.77;;;5.70;;
1885;SDS011;943;51.568;6.998;2022-07-24T14:36:44;5.70;;;5.13;;
1885;SDS011;943;51.568;6.998;2022-07-24T14:39:13;7.33;;;5.73;;
1885;SDS011;943;51.568;6.998;2022-07-24T14:41:41;9.47;;;6.20;;
1885;SDS011;943;51.568;6.998;2022-07-24T14:44:09;8.43;;;4.97;;
1885;SDS011;943;51.568;6.998;2022-07-24T14:46:38;5.83;;;5.30;;
1885;SDS011;943;51.568;6.998;2022-07-24T14:49:08;6.97;;;4.97;;
1885;SDS011;943;51.568;6.998;2022-07-24T14:51:37;6.20;;;5.23;;
1885;SDS011;943;51.568;6.998;2022-07-24T14:54:06;5.43;;;4.93;;
1885;SDS011;943;51.568;6.998;2022-07-24T14:56:37;5.90;;;5.00;;
1885;SDS011;943;51.568;6.998;2022-07-24T14:59:06;5.57;;;5.07;;
1885;SDS011;943;51.568;6.998;2022-07-24T15:01:45;5.63;;;5.07;;
1885;SDS011;943;51.568;6.998;2022-07-24T15:04:13;5.60;;;5.00;;
1885;SDS011;943;51.568;6.998;2022-07-24T15:06:41;7.20;;;4.80;;
1885;SDS011;943;51.568;6.998;2022-07-24T15:09:09;8.23;;;5.70;;
1885;SDS011;943;51.568;6.998;2022-07-24T15:11:36;5.87;;;5.37;;
1885;SDS011;943;51.568;6.998;2022-07-24T15:14:04;8.40;;;5.27;;
1885;SDS011;943;51.568;6.998;2022-07-24T15:16:33;7.17;;;6.57;;
1885;SDS011;943;51.568;6.998;2022-07-24T15:19:02;5.83;;;4.97;;
1885;SDS011;943;51.568;6.998;2022-07-24T15:21:33;5.57;;;5.07;;
1885;SDS011;943;51.568;6.998;2022-07-24T15:24:04;5.70;;;5.10;;
1885;SDS011;943;51.568;6.998;2022-07-24T15:26:35;5.73;;;5.10;;
1885;SDS011;943;51.568;6.998;2022-07-24T15:29:04;6.33;;;5.23;;
1885;SDS011;943;51.568;6.998;2022-07-24T15:31:33;6.73;;;5.00;;
1885;SDS011;943;51.568;6.998;2022-07-24T15:34:03;5.60;;;5.00;;
1885;SDS011;943;51.568;6.998;2022-07-24T15:36:34;7.10;;;5.60;;
1885;SDS011;943;51.568;6.998;2022-07-24T15:39:03;5.40;;;4.90;;
1885;SDS011;943;51.568;6.998;2022-07-24T15:41:36;7.30;;;5.40;;
1885;SDS011;943;51.568;6.998;2022-07-24T15:44:07;7.53;;;4.43;;
1885;SDS011;943;51.568;6.998;2022-07-24T15:46:35;6.63;;;5.83;;
1885;SDS011;943;51.568;6.998;2022-07-24T15:49:04;5.80;;;5.00;;
1885;SDS011;943;51.568;6.998;2022-07-24T15:51:35;5.03;;;4.50;;
1885;SDS011;943;51.568;6.998;2022-07-24T15:54:04;5.17;;;4.70;;
1885;SDS011;943;51.568;6.998;2022-07-24T15:56:33;5.67;;;4.63;;
1885;SDS011;943;51.568;6.998;2022-07-24T15:59:00;6.27;;;4.93;;
1885;SDS011;943;51.568;6.998;2022-07-24T16:01:28;6.47;;;5.00;;
1885;SDS011;943;51.568;6.998;2022-07-24T16:04:13;6.07;;;5.47;;
1885;SDS011;943;51.568;6.998;2022-07-24T16:06:43;6.03;;;5.23;;
1885;SDS011;943;51.568;6.998;2022-07-24T16:09:13;6.03;;;5.03;;
1885;SDS011;943;51.568;6.998;2022-07-24T16:11:42;5.90;;;5.40;;
1885;SDS011;943;51.568;6.998;2022-07-24T16:14:10;5.70;;;5.13;;
1885;SDS011;943;51.568;6.998;2022-07-24T16:16:39;6.00;;;5.30;;
1885;SDS011;943;51.568;6.998;2022-07-24T16:19:08;6.70;;;4.93;;
1885;SDS011;943;51.568;6.998;2022-07-24T16:21:36;8.50;;;5.73;;
1885;SDS011;943;51.568;6.998;2022-07-24T16:24:06;5.77;;;5.27;;
1885;SDS011;943;51.568;6.998;2022-07-24T16:26:35;7.87;;;5.80;;
1885;SDS011;943;51.568;6.998;2022-07-24T16:29:03;7.97;;;5.40;;
1885;SDS011;943;51.568;6.998;2022-07-24T16:31:31;7.37;;;5.53;;
1885;SDS011;943;51.568;6.998;2022-07-24T16:33:58;7.00;;;6.30;;
1885;SDS011;943;51.568;6.998;2022-07-24T16:36:28;6.23;;;5.63;;
1885;SDS011;943;51.568;6.998;2022-07-24T16:38:57;6.47;;;5.77;;
1885;SDS011;943;51.568;6.998;2022-07-24T16:41:24;6.03;;;5.53;;
1885;SDS011;943;51.568;6.998;2022-07-24T16:43:58;7.30;;;5.73;;
1885;SDS011;943;51.568;6.998;2022-07-24T16:46:28;6.17;;;5.37;;
1885;SDS011;943;51.568;6.998;2022-07-24T16:48:57;6.30;;;5.80;;